Albany, Nebraska
Current Conditions -  °F | °C
As of 1:55 PM on Tuesday 21 Oct 2014 (Local Time) from KHDE Reporting Station
Clear Clear  
Wind Chill: 73°   Ceiling: Unl
Heat Index: 73°   Visibility: 10mi
Dew Point: 50°   Wind: 18mph
Humidity: 45%   Direction: 170°S
Pressure: 30.02"   Gusts: 24mph
Location:  40.2849°N, 99.6171°W
Report Text: KHDE 211855Z AUTO 17016G21KT 10SM CLR 23/10 A3002 RMK AO2 T02260102
Loading
Personal Weather Stations






























Interactive Weather Map New forecast layout! Learn more

10-Day Weather Forecast

Advertisements
Track Severe Weather on mobile